Iona Mcallister — WDD4840 — position and weather

sailwx.info

Track history (hours):
 
Tides and Currents Weather Stations Pressure Air Temp Water Temp Dewpoint Dewpoint Depression Visibility Wind Speed Wind Dir Waves Ship Positions

Iona Mcallister

Owner: McAllister Towing & Transportation Co. Inc., Staten Island, NY. More information available from US FCC via Universal Licensing System and Coast Guard Vessel Documentation Center.

Last reported at 2014-Oct-31 16:06 UTC. Time now 2014-Oct-31 23:08 UTC.
Position N 41°25' W 071°03'.

Length 36 m; draft 4 m.

Type: Towing. MMSI: 367149890.

Date/timePositionNaut miles runAvg speedWind from/ knotsBaromVisibWave heightAir tempDewpointWater temp
2014-Oct-31 16:06N 41°25' W 071°03'4 7.6
2014-Oct-31 15:33N 41°23' W 071°08'7 7.2
2014-Oct-31 14:33N 41°25' W 071°18'7 6.7
2014-Oct-31 13:33N 41°31' W 071°20'9 9.6
2014-Oct-31 12:33N 41°40' W 071°19'9 9.1
2014-Oct-31 11:34N 41°49' W 071°24'0 0.1
2014-Oct-31 10:34N 41°49' W 071°24'0 0.0
2014-Oct-31 09:34N 41°49' W 071°24'0 0.0
2014-Oct-31 08:34N 41°49' W 071°24'0 0.0
2014-Oct-31 07:34N 41°49' W 071°24'0 0.0
2014-Oct-31 06:33N 41°49' W 071°24'0 0.0
2014-Oct-31 05:34N 41°49' W 071°24'0 0.2
2014-Oct-31 04:34N 41°49' W 071°24'0 0.2
2014-Oct-31 03:34N 41°49' W 071°24'3 2.5
2014-Oct-31 02:33N 41°47' W 071°22'8 7.6
2014-Oct-31 01:31N 41°39' W 071°22'3 2.6
2014-Oct-31 00:34N 41°37' W 071°24'0 0.0
2014-Oct-30 23:33N 41°37' W 071°24'0 0.0
2014-Oct-30 22:34N 41°37' W 071°24'0 0.0
2014-Oct-30 21:33N 41°37' W 071°24'0 0.0
2014-Oct-30 20:26N 41°37' W 071°24'0 0.0
2014-Oct-30 19:28N 41°37' W 071°24'0 0.0
2014-Oct-30 18:32N 41°37' W 071°24'0 0.0
2014-Oct-30 17:34N 41°37' W 071°24'0 0.0
2014-Oct-30 16:34N 41°37' W 071°24'0 0.0
2014-Oct-30 15:28N 41°37' W 071°24'0 0.0
2014-Oct-30 14:33N 41°37' W 071°24'0 0.0
2014-Oct-30 13:33N 41°37' W 071°24'0 0.0
2014-Oct-30 12:32N 41°37' W 071°24'0 0.0
2014-Oct-30 11:33N 41°37' W 071°24'1 0.5
2014-Oct-30 10:28N 41°36' W 071°24'0 0.0
2014-Oct-30 09:34N 41°36' W 071°24'1 1.4
2014-Oct-30 08:34N 41°35' W 071°25'0 0.0
2014-Oct-30 07:34N 41°35' W 071°25'0 0.0
2014-Oct-30 06:33N 41°35' W 071°25'8 7.7
2014-Oct-30 05:34N 41°42' W 071°20'6 5.5
2014-Oct-30 04:31N 41°48' W 071°23'1 1.4
2014-Oct-30 03:33N 41°46' W 071°22'1 1.1
2014-Oct-30 02:34N 41°47' W 071°23'0 0.0
2014-Oct-30 01:33N 41°47' W 071°23'1 0.6
2014-Oct-30 00:33N 41°47' W 071°22'2 1.7
2014-Oct-29 23:12N 41°49' W 071°24'0 0.0
2014-Oct-29 22:33N 41°49' W 071°24'0 0.0
2014-Oct-29 21:33N 41°49' W 071°24'0 0.0
2014-Oct-29 20:34N 41°49' W 071°24'0 0.0
2014-Oct-29 15:13N 41°49' W 071°24'0 0.0
2014-Oct-29 14:33N 41°49' W 071°24'0 0.0
2014-Oct-29 13:33N 41°49' W 071°24'0 0.0
2014-Oct-29 12:33N 41°49' W 071°24'0 0.0
2014-Oct-29 11:33N 41°49' W 071°24'0 0.0
2014-Oct-29 10:33N 41°49' W 071°24'0 0.0
2014-Oct-29 09:33N 41°49' W 071°24'0 0.0
2014-Oct-29 08:33N 41°49' W 071°24'0 0.0
2014-Oct-29 07:33N 41°49' W 071°24'0 0.0
2014-Oct-29 06:33N 41°49' W 071°24'0 0.0
2014-Oct-29 05:33N 41°49' W 071°24'0 0.0
2014-Oct-29 04:33N 41°49' W 071°24'0 0.0
2014-Oct-29 03:33N 41°49' W 071°24'0 0.0
2014-Oct-29 02:33N 41°49' W 071°24'0 0.0
2014-Oct-29 01:34N 41°49' W 071°24'0 0.0
2014-Oct-29 00:33N 41°49' W 071°24'0 0.0
2014-Oct-28 23:33N 41°49' W 071°24'0 0.4
2014-Oct-28 22:33N 41°49' W 071°24'2 1.9
2014-Oct-28 21:33N 41°47' W 071°22'2 1.6
2014-Oct-28 20:33N 41°48' W 071°24'1 0.8
2014-Oct-28 19:33N 41°49' W 071°24'0 0.2
2014-Oct-28 18:33N 41°49' W 071°24'9 8.5
2014-Oct-28 17:32N 41°41' W 071°19'9 9.1
2014-Oct-28 16:33N 41°32' W 071°20'6 6.4
2014-Oct-28 15:33N 41°26' W 071°18'10 9.5
2014-Oct-28 14:33N 41°27' W 071°05'9 8.8
2014-Oct-28 13:34N 41°30' W 070°55'10 8.9
2014-Oct-28 12:25N 41°37' W 070°45'8 9.5
2014-Oct-28 11:31N 41°44' W 070°38'3 1.2
2014-Oct-28 09:26N 41°45' W 070°35'7 6.3
2014-Oct-28 08:20N 41°40' W 070°41'7 8.7
2014-Oct-28 07:30N 41°34' W 070°47'9 8.4
2014-Oct-28 06:28N 41°29' W 070°56'8 8.8
2014-Oct-28 05:33N 41°27' W 071°07'10 9.5
2014-Oct-28 04:33N 41°26' W 071°19'7 6.7
2014-Oct-28 03:33N 41°33' W 071°20'9 9.0
2014-Oct-28 02:34N 41°41' W 071°19'8 8.3
2014-Oct-28 01:33N 41°49' W 071°24'0 0.0
2014-Oct-28 00:33N 41°49' W 071°24'0 0.0
2014-Oct-27 23:33N 41°49' W 071°24'5 5.3
2014-Oct-27 22:33N 41°44' W 071°22'6 6.4
2014-Oct-27 21:33N 41°37' W 071°23'2 1.5
2014-Oct-27 20:32N 41°37' W 071°24'0 0.0
2014-Oct-27 19:30N 41°37' W 071°24'0 0.0
2014-Oct-27 18:23N 41°37' W 071°24'0 0.0
2014-Oct-27 16:17N 41°37' W 071°24'0 0.0
2014-Oct-27 15:30N 41°37' W 071°24'0 0.0
2014-Oct-27 14:32N 41°37' W 071°24'0 0.0
2014-Oct-27 13:27N 41°37' W 071°24'0 0.0
2014-Oct-27 12:33N 41°37' W 071°24'0 0.0
2014-Oct-27 11:33N 41°37' W 071°24'1 1.0
2014-Oct-27 10:33N 41°36' W 071°24'1 0.6
2014-Oct-27 09:31N 41°37' W 071°24'1 1.5
2014-Oct-27 08:33N 41°35' W 071°25'0 0.0
2014-Oct-27 07:33N 41°35' W 071°25'0 0.0
2014-Oct-27 06:33N 41°35' W 071°25'0 0.0
2014-Oct-27 05:33N 41°35' W 071°25'0 0.0
2014-Oct-27 04:33N 41°35' W 071°25'0 0.0
2014-Oct-27 03:33N 41°35' W 071°25'0 0.0
2014-Oct-27 02:33N 41°35' W 071°25'0 0.0
2014-Oct-27 01:33N 41°35' W 071°25'4 4.2
2014-Oct-27 00:33N 41°39' W 071°22'7 7.2
2014-Oct-26 23:33N 41°46' W 071°22'3 2.8
2014-Oct-26 22:29N 41°49' W 071°24'0 0.0
2014-Oct-26 21:23N 41°49' W 071°24'0 0.0
2014-Oct-26 20:22N 41°49' W 071°24'0 0.0
2014-Oct-26 19:21N 41°49' W 071°24'0 0.0
2014-Oct-26 17:34N 41°49' W 071°24'0 0.0
2014-Oct-26 16:33N 41°49' W 071°24'0 0.0
2014-Oct-26 15:26N 41°49' W 071°24'0 0.0
2014-Oct-26 14:33N 41°49' W 071°24'0 0.0
2014-Oct-26 13:33N 41°49' W 071°24'0 0.0
2014-Oct-26 12:33N 41°49' W 071°24'0 0.0
2014-Oct-26 11:33N 41°49' W 071°24'0 0.0
2014-Oct-26 10:33N 41°49' W 071°24'0 0.0
2014-Oct-26 09:33N 41°49' W 071°24'0 0.0
2014-Oct-26 08:33N 41°49' W 071°24'0 0.0
2014-Oct-26 07:33N 41°49' W 071°24'0 0.0
2014-Oct-26 06:33N 41°49' W 071°24'0 0.0
2014-Oct-26 05:33N 41°49' W 071°24'1 0.8
2014-Oct-26 04:33N 41°48' W 071°24'0 0.4
2014-Oct-26 03:33N 41°48' W 071°23'1 0.9
2014-Oct-26 02:33N 41°49' W 071°24'0 0.0
2014-Oct-26 01:33N 41°49' W 071°24'0 0.0
2014-Oct-26 00:33N 41°49' W 071°24'0 0.0
2014-Oct-25 23:33N 41°49' W 071°24'0 0.0
2014-Oct-25 22:33N 41°49' W 071°24'0 0.0
2014-Oct-25 21:29N 41°49' W 071°24'2 1.9
2014-Oct-25 20:26N 41°47' W 071°23'8 8.9
2014-Oct-25 19:34N 41°40' W 071°19'9 8.9
2014-Oct-25 18:33N 41°31' W 071°20'6 6.0
2014-Oct-25 17:33N 41°26' W 071°17'10 9.3
2014-Oct-25 16:26N 41°27' W 071°03'22 4.5
2014-Oct-25 11:31N 41°41' W 070°40'9 8.9
2014-Oct-25 10:33N 41°33' W 070°45'10 9.9
2014-Oct-25 09:33N 41°28' W 070°56'5 5.0
2014-Oct-25 08:33N 41°26' W 071°02'2 0.1
2014-Oct-24 11:23N 41°25' W 071°04'8 9.9
2014-Oct-24 10:33N 41°25' W 071°15'6 6.4
2014-Oct-24 09:33N 41°30' W 071°21'8 7.3
2014-Oct-24 08:32N 41°37' W 071°24'0 0.0
2014-Oct-24 07:29N 41°37' W 071°24'0 0.0
2014-Oct-24 06:33N 41°37' W 071°24'0 0.0
2014-Oct-24 05:33N 41°37' W 071°24'0 0.0
2014-Oct-24 04:27N 41°37' W 071°24'0 0.0
2014-Oct-24 03:33N 41°37' W 071°24'0 0.0
2014-Oct-24 02:31N 41°37' W 071°24'0 0.0
2014-Oct-24 01:33N 41°37' W 071°24'0 0.0
2014-Oct-24 00:32N 41°37' W 071°24'0 0.0
2014-Oct-23 23:33N 41°37' W 071°24'0 0.0
2014-Oct-23 22:22N 41°37' W 071°24'0 0.0
2014-Oct-23 21:32N 41°37' W 071°24'0 0.0
2014-Oct-23 20:33N 41°37' W 071°24'0 0.0
2014-Oct-23 19:33N 41°37' W 071°24'1 0.2
2014-Oct-23 15:33N 41°36' W 071°24'1 1.2
2014-Oct-23 14:33N 41°35' W 071°25'0 0.2
2014-Oct-23 13:33N 41°35' W 071°24'2 1.7
2014-Oct-23 12:33N 41°37' W 071°24'0 0.1
2014-Oct-23 11:11N 41°37' W 071°24'0 0.1
2014-Oct-23 10:33N 41°37' W 071°24'0 0.0
2014-Oct-23 09:33N 41°37' W 071°24'0 0.0
2014-Oct-23 08:31N 41°37' W 071°24'0 0.0
2014-Oct-23 07:33N 41°37' W 071°24'0 0.0
2014-Oct-23 06:33N 41°37' W 071°24'0 0.0
2014-Oct-23 05:33N 41°37' W 071°24'0 0.0
2014-Oct-23 04:33N 41°37' W 071°24'0 0.0
2014-Oct-23 03:33N 41°37' W 071°24'0 0.0
2014-Oct-23 02:33N 41°37' W 071°24'0 0.0
2014-Oct-23 01:33N 41°37' W 071°24'0 0.0
2014-Oct-23 00:33N 41°37' W 071°24'0 0.0
2014-Oct-22 23:32N 41°37' W 071°24'0 0.0
2014-Oct-22 22:32N 41°37' W 071°24'0 0.0
2014-Oct-22 21:33N 41°37' W 071°24'2 2.1
2014-Oct-22 20:29N 41°35' W 071°23'4 4.5
2014-Oct-22 19:33N 41°31' W 071°22'0 0.0
2014-Oct-22 18:33N 41°31' W 071°21'0 0.0
2014-Oct-22 17:33N 41°31' W 071°21'3 3.3
2014-Oct-22 16:33N 41°34' W 071°21'4 3.5
2014-Oct-22 15:32N 41°37' W 071°24'0 0.0
2014-Oct-22 14:33N 41°37' W 071°24'5 4.7
2014-Oct-22 13:27N 41°32' W 071°21'7 7.3
2014-Oct-22 12:33N 41°26' W 071°20'21 3.4
2014-Oct-22 06:20N 41°30' W 070°52'4 3.9
2014-Oct-22 05:17N 41°28' W 070°57'3 3.7
2014-Oct-22 04:33N 41°27' W 071°00'3 3.4
2014-Oct-22 03:33N 41°24' W 071°03'8 8.0
2014-Oct-22 02:33N 41°25' W 071°14'7 6.8
2014-Oct-22 01:33N 41°30' W 071°21'1010.2
2014-Oct-22 00:33N 41°40' W 071°19'8 8.3
2014-Oct-21 23:34N 41°47' W 071°23'1 0.7
2014-Oct-21 22:33N 41°48' W 071°23'0 0.0
2014-Oct-21 21:04N 41°48' W 071°23'0 0.2
2014-Oct-21 18:33N 41°48' W 071°24'1 0.8
2014-Oct-21 17:33N 41°49' W 071°24'0 0.0
2014-Oct-21 16:33N 41°49' W 071°24'  
Track history (hours):
 
Tides and Currents Weather Stations Pressure Air Temp Water Temp Dewpoint Dewpoint Depression Visibility Wind Speed Wind Dir Waves Ship Positions

Iona Mcallister

Owner: McAllister Towing & Transportation Co. Inc., Staten Island, NY. More information available from US FCC via Universal Licensing System and Coast Guard Vessel Documentation Center.

Last reported at 2014-Oct-31 16:06 UTC. Time now 2014-Oct-31 23:08 UTC.
Position N 41°25' W 071°03'.

Length 36 m; draft 4 m.

Type: Towing. MMSI: 367149890.

Date/timePositionNaut miles runAvg speedWind from/ knotsBaromVisibWave heightAir tempDewpointWater temp
2014-Oct-31 16:06N 41°25' W 071°03'4 7.6
2014-Oct-31 15:33N 41°23' W 071°08'7 7.2
2014-Oct-31 14:33N 41°25' W 071°18'7 6.7
2014-Oct-31 13:33N 41°31' W 071°20'9 9.6
2014-Oct-31 12:33N 41°40' W 071°19'9 9.1
2014-Oct-31 11:34N 41°49' W 071°24'0 0.1
2014-Oct-31 10:34N 41°49' W 071°24'0 0.0
2014-Oct-31 09:34N 41°49' W 071°24'0 0.0
2014-Oct-31 08:34N 41°49' W 071°24'0 0.0
2014-Oct-31 07:34N 41°49' W 071°24'0 0.0
2014-Oct-31 06:33N 41°49' W 071°24'0 0.0
2014-Oct-31 05:34N 41°49' W 071°24'0 0.2
2014-Oct-31 04:34N 41°49' W 071°24'0 0.2
2014-Oct-31 03:34N 41°49' W 071°24'3 2.5
2014-Oct-31 02:33N 41°47' W 071°22'8 7.6
2014-Oct-31 01:31N 41°39' W 071°22'3 2.6
2014-Oct-31 00:34N 41°37' W 071°24'0 0.0
2014-Oct-30 23:33N 41°37' W 071°24'0 0.0
2014-Oct-30 22:34N 41°37' W 071°24'0 0.0
2014-Oct-30 21:33N 41°37' W 071°24'0 0.0
2014-Oct-30 20:26N 41°37' W 071°24'0 0.0
2014-Oct-30 19:28N 41°37' W 071°24'0 0.0
2014-Oct-30 18:32N 41°37' W 071°24'0 0.0
2014-Oct-30 17:34N 41°37' W 071°24'0 0.0
2014-Oct-30 16:34N 41°37' W 071°24'0 0.0
2014-Oct-30 15:28N 41°37' W 071°24'0 0.0
2014-Oct-30 14:33N 41°37' W 071°24'0 0.0
2014-Oct-30 13:33N 41°37' W 071°24'0 0.0
2014-Oct-30 12:32N 41°37' W 071°24'0 0.0
2014-Oct-30 11:33N 41°37' W 071°24'1 0.5
2014-Oct-30 10:28N 41°36' W 071°24'0 0.0
2014-Oct-30 09:34N 41°36' W 071°24'1 1.4
2014-Oct-30 08:34N 41°35' W 071°25'0 0.0
2014-Oct-30 07:34N 41°35' W 071°25'0 0.0
2014-Oct-30 06:33N 41°35' W 071°25'8 7.7
2014-Oct-30 05:34N 41°42' W 071°20'6 5.5
2014-Oct-30 04:31N 41°48' W 071°23'1 1.4
2014-Oct-30 03:33N 41°46' W 071°22'1 1.1
2014-Oct-30 02:34N 41°47' W 071°23'0 0.0
2014-Oct-30 01:33N 41°47' W 071°23'1 0.6
2014-Oct-30 00:33N 41°47' W 071°22'2 1.7
2014-Oct-29 23:12N 41°49' W 071°24'0 0.0
2014-Oct-29 22:33N 41°49' W 071°24'0 0.0
2014-Oct-29 21:33N 41°49' W 071°24'0 0.0
2014-Oct-29 20:34N 41°49' W 071°24'0 0.0
2014-Oct-29 15:13N 41°49' W 071°24'0 0.0
2014-Oct-29 14:33N 41°49' W 071°24'0 0.0
2014-Oct-29 13:33N 41°49' W 071°24'0 0.0
2014-Oct-29 12:33N 41°49' W 071°24'0 0.0
2014-Oct-29 11:33N 41°49' W 071°24'0 0.0
2014-Oct-29 10:33N 41°49' W 071°24'0 0.0
2014-Oct-29 09:33N 41°49' W 071°24'0 0.0
2014-Oct-29 08:33N 41°49' W 071°24'0 0.0
2014-Oct-29 07:33N 41°49' W 071°24'0 0.0
2014-Oct-29 06:33N 41°49' W 071°24'0 0.0
2014-Oct-29 05:33N 41°49' W 071°24'0 0.0
2014-Oct-29 04:33N 41°49' W 071°24'0 0.0
2014-Oct-29 03:33N 41°49' W 071°24'0 0.0
2014-Oct-29 02:33N 41°49' W 071°24'0 0.0
2014-Oct-29 01:34N 41°49' W 071°24'0 0.0
2014-Oct-29 00:33N 41°49' W 071°24'0 0.0
2014-Oct-28 23:33N 41°49' W 071°24'0 0.4
2014-Oct-28 22:33N 41°49' W 071°24'2 1.9
2014-Oct-28 21:33N 41°47' W 071°22'2 1.6
2014-Oct-28 20:33N 41°48' W 071°24'1 0.8
2014-Oct-28 19:33N 41°49' W 071°24'0 0.2
2014-Oct-28 18:33N 41°49' W 071°24'9 8.5
2014-Oct-28 17:32N 41°41' W 071°19'9 9.1
2014-Oct-28 16:33N 41°32' W 071°20'6 6.4
2014-Oct-28 15:33N 41°26' W 071°18'10 9.5
2014-Oct-28 14:33N 41°27' W 071°05'9 8.8
2014-Oct-28 13:34N 41°30' W 070°55'10 8.9
2014-Oct-28 12:25N 41°37' W 070°45'8 9.5
2014-Oct-28 11:31N 41°44' W 070°38'3 1.2
2014-Oct-28 09:26N 41°45' W 070°35'7 6.3
2014-Oct-28 08:20N 41°40' W 070°41'7 8.7
2014-Oct-28 07:30N 41°34' W 070°47'9 8.4
2014-Oct-28 06:28N 41°29' W 070°56'8 8.8
2014-Oct-28 05:33N 41°27' W 071°07'10 9.5
2014-Oct-28 04:33N 41°26' W 071°19'7 6.7
2014-Oct-28 03:33N 41°33' W 071°20'9 9.0
2014-Oct-28 02:34N 41°41' W 071°19'8 8.3
2014-Oct-28 01:33N 41°49' W 071°24'0 0.0
2014-Oct-28 00:33N 41°49' W 071°24'0 0.0
2014-Oct-27 23:33N 41°49' W 071°24'5 5.3
2014-Oct-27 22:33N 41°44' W 071°22'6 6.4
2014-Oct-27 21:33N 41°37' W 071°23'2 1.5
2014-Oct-27 20:32N 41°37' W 071°24'0 0.0
2014-Oct-27 19:30N 41°37' W 071°24'0 0.0
2014-Oct-27 18:23N 41°37' W 071°24'0 0.0
2014-Oct-27 16:17N 41°37' W 071°24'0 0.0
2014-Oct-27 15:30N 41°37' W 071°24'0 0.0
2014-Oct-27 14:32N 41°37' W 071°24'0 0.0
2014-Oct-27 13:27N 41°37' W 071°24'0 0.0
2014-Oct-27 12:33N 41°37' W 071°24'0 0.0
2014-Oct-27 11:33N 41°37' W 071°24'1 1.0
2014-Oct-27 10:33N 41°36' W 071°24'1 0.6
2014-Oct-27 09:31N 41°37' W 071°24'1 1.5
2014-Oct-27 08:33N 41°35' W 071°25'0 0.0
2014-Oct-27 07:33N 41°35' W 071°25'0 0.0
2014-Oct-27 06:33N 41°35' W 071°25'0 0.0
2014-Oct-27 05:33N 41°35' W 071°25'0 0.0
2014-Oct-27 04:33N 41°35' W 071°25'0 0.0
2014-Oct-27 03:33N 41°35' W 071°25'0 0.0
2014-Oct-27 02:33N 41°35' W 071°25'0 0.0
2014-Oct-27 01:33N 41°35' W 071°25'4 4.2
2014-Oct-27 00:33N 41°39' W 071°22'7 7.2
2014-Oct-26 23:33N 41°46' W 071°22'3 2.8
2014-Oct-26 22:29N 41°49' W 071°24'0 0.0
2014-Oct-26 21:23N 41°49' W 071°24'0 0.0
2014-Oct-26 20:22N 41°49' W 071°24'0 0.0
2014-Oct-26 19:21N 41°49' W 071°24'0 0.0
2014-Oct-26 17:34N 41°49' W 071°24'0 0.0
2014-Oct-26 16:33N 41°49' W 071°24'0 0.0
2014-Oct-26 15:26N 41°49' W 071°24'0 0.0
2014-Oct-26 14:33N 41°49' W 071°24'0 0.0
2014-Oct-26 13:33N 41°49' W 071°24'0 0.0
2014-Oct-26 12:33N 41°49' W 071°24'0 0.0
2014-Oct-26 11:33N 41°49' W 071°24'0 0.0
2014-Oct-26 10:33N 41°49' W 071°24'0 0.0
2014-Oct-26 09:33N 41°49' W 071°24'0 0.0
2014-Oct-26 08:33N 41°49' W 071°24'0 0.0
2014-Oct-26 07:33N 41°49' W 071°24'0 0.0
2014-Oct-26 06:33N 41°49' W 071°24'0 0.0
2014-Oct-26 05:33N 41°49' W 071°24'1 0.8
2014-Oct-26 04:33N 41°48' W 071°24'0 0.4
2014-Oct-26 03:33N 41°48' W 071°23'1 0.9
2014-Oct-26 02:33N 41°49' W 071°24'0 0.0
2014-Oct-26 01:33N 41°49' W 071°24'0 0.0
2014-Oct-26 00:33N 41°49' W 071°24'0 0.0
2014-Oct-25 23:33N 41°49' W 071°24'0 0.0
2014-Oct-25 22:33N 41°49' W 071°24'0 0.0
2014-Oct-25 21:29N 41°49' W 071°24'2 1.9
2014-Oct-25 20:26N 41°47' W 071°23'8 8.9
2014-Oct-25 19:34N 41°40' W 071°19'9 8.9
2014-Oct-25 18:33N 41°31' W 071°20'6 6.0
2014-Oct-25 17:33N 41°26' W 071°17'10 9.3
2014-Oct-25 16:26N 41°27' W 071°03'22 4.5
2014-Oct-25 11:31N 41°41' W 070°40'9 8.9
2014-Oct-25 10:33N 41°33' W 070°45'10 9.9
2014-Oct-25 09:33N 41°28' W 070°56'5 5.0
2014-Oct-25 08:33N 41°26' W 071°02'2 0.1
2014-Oct-24 11:23N 41°25' W 071°04'8 9.9
2014-Oct-24 10:33N 41°25' W 071°15'6 6.4
2014-Oct-24 09:33N 41°30' W 071°21'8 7.3
2014-Oct-24 08:32N 41°37' W 071°24'0 0.0
2014-Oct-24 07:29N 41°37' W 071°24'0 0.0
2014-Oct-24 06:33N 41°37' W 071°24'0 0.0
2014-Oct-24 05:33N 41°37' W 071°24'0 0.0
2014-Oct-24 04:27N 41°37' W 071°24'0 0.0
2014-Oct-24 03:33N 41°37' W 071°24'0 0.0
2014-Oct-24 02:31N 41°37' W 071°24'0 0.0
2014-Oct-24 01:33N 41°37' W 071°24'0 0.0
2014-Oct-24 00:32N 41°37' W 071°24'0 0.0
2014-Oct-23 23:33N 41°37' W 071°24'0 0.0
2014-Oct-23 22:22N 41°37' W 071°24'0 0.0
2014-Oct-23 21:32N 41°37' W 071°24'0 0.0
2014-Oct-23 20:33N 41°37' W 071°24'0 0.0
2014-Oct-23 19:33N 41°37' W 071°24'1 0.2
2014-Oct-23 15:33N 41°36' W 071°24'1 1.2
2014-Oct-23 14:33N 41°35' W 071°25'0 0.2
2014-Oct-23 13:33N 41°35' W 071°24'2 1.7
2014-Oct-23 12:33N 41°37' W 071°24'0 0.1
2014-Oct-23 11:11N 41°37' W 071°24'0 0.1
2014-Oct-23 10:33N 41°37' W 071°24'0 0.0
2014-Oct-23 09:33N 41°37' W 071°24'0 0.0
2014-Oct-23 08:31N 41°37' W 071°24'0 0.0
2014-Oct-23 07:33N 41°37' W 071°24'0 0.0
2014-Oct-23 06:33N 41°37' W 071°24'0 0.0
2014-Oct-23 05:33N 41°37' W 071°24'0 0.0
2014-Oct-23 04:33N 41°37' W 071°24'0 0.0
2014-Oct-23 03:33N 41°37' W 071°24'0 0.0
2014-Oct-23 02:33N 41°37' W 071°24'0 0.0
2014-Oct-23 01:33N 41°37' W 071°24'0 0.0
2014-Oct-23 00:33N 41°37' W 071°24'0 0.0
2014-Oct-22 23:32N 41°37' W 071°24'0 0.0
2014-Oct-22 22:32N 41°37' W 071°24'0 0.0
2014-Oct-22 21:33N 41°37' W 071°24'2 2.1
2014-Oct-22 20:29N 41°35' W 071°23'4 4.5
2014-Oct-22 19:33N 41°31' W 071°22'0 0.0
2014-Oct-22 18:33N 41°31' W 071°21'0 0.0
2014-Oct-22 17:33N 41°31' W 071°21'3 3.3
2014-Oct-22 16:33N 41°34' W 071°21'4 3.5
2014-Oct-22 15:32N 41°37' W 071°24'0 0.0
2014-Oct-22 14:33N 41°37' W 071°24'5 4.7
2014-Oct-22 13:27N 41°32' W 071°21'7 7.3
2014-Oct-22 12:33N 41°26' W 071°20'21 3.4
2014-Oct-22 06:20N 41°30' W 070°52'4 3.9
2014-Oct-22 05:17N 41°28' W 070°57'3 3.7
2014-Oct-22 04:33N 41°27' W 071°00'3 3.4
2014-Oct-22 03:33N 41°24' W 071°03'8 8.0
2014-Oct-22 02:33N 41°25' W 071°14'7 6.8
2014-Oct-22 01:33N 41°30' W 071°21'1010.2
2014-Oct-22 00:33N 41°40' W 071°19'8 8.3
2014-Oct-21 23:34N 41°47' W 071°23'1 0.7
2014-Oct-21 22:33N 41°48' W 071°23'0 0.0
2014-Oct-21 21:04N 41°48' W 071°23'0 0.2
2014-Oct-21 18:33N 41°48' W 071°24'1 0.8
2014-Oct-21 17:33N 41°49' W 071°24'0 0.0
2014-Oct-21 16:33N 41°49' W 071°24'  

Dump ship's entire track history